createdAt,value
2023-04-16T00:01:24.463Z,6.20
2023-04-16T00:03:53.496Z,6.65
2023-04-16T00:06:23.589Z,6.20
2023-04-16T00:08:52.630Z,6.32
2023-04-16T00:14:01.806Z,5.13
2023-04-16T00:16:37.610Z,5.65
2023-04-16T00:19:04.785Z,5.68
2023-04-16T00:21:32.955Z,5.90
2023-04-16T00:24:03.799Z,5.88
2023-04-16T00:26:31.531Z,4.93
2023-04-16T00:29:06.271Z,5.75
2023-04-16T00:31:34.741Z,5.80
2023-04-16T00:34:07.144Z,5.65
2023-04-16T00:36:36.180Z,5.07
2023-04-16T00:39:06.606Z,6.03
2023-04-16T00:41:34.934Z,5.75
2023-04-16T00:44:01.761Z,6.20
2023-04-16T00:46:28.795Z,6.40
2023-04-16T00:48:57.415Z,5.70
2023-04-16T00:51:24.357Z,6.55
2023-04-16T00:53:51.350Z,7.25
2023-04-16T00:56:21.326Z,7.57
2023-04-16T00:58:49.072Z,7.57
2023-04-16T01:04:18.762Z,6.68
2023-04-16T01:06:49.864Z,6.30
2023-04-16T01:09:21.266Z,6.60
2023-04-16T01:11:48.152Z,6.50
2023-04-16T01:14:17.670Z,6.35
2023-04-16T01:16:48.647Z,5.75
2023-04-16T01:19:16.980Z,5.18
2023-04-16T01:21:47.073Z,4.47
2023-04-16T01:24:16.955Z,4.15
2023-04-16T01:26:45.407Z,3.92
2023-04-16T01:29:20.450Z,3.40
2023-04-16T01:31:49.846Z,3.72
2023-04-16T01:34:25.320Z,3.55
2023-04-16T01:36:52.334Z,4.25
2023-04-16T01:39:20.503Z,3.88
2023-04-16T01:41:49.952Z,3.85
2023-04-16T01:44:16.818Z,3.95
2023-04-16T01:46:46.308Z,4.70
2023-04-16T01:49:14.779Z,4.32
2023-04-16T01:51:44.501Z,4.55
2023-04-16T01:54:20.487Z,4.18
2023-04-16T01:56:47.542Z,4.53
2023-04-16T01:59:15.724Z,3.67
2023-04-16T02:01:43.419Z,4.50
2023-04-16T02:04:14.769Z,4.68
2023-04-16T02:06:43.003Z,5.18
2023-04-16T02:09:11.265Z,4.82
2023-04-16T02:11:40.728Z,4.85
2023-04-16T02:14:08.723Z,4.75
2023-04-16T02:16:36.662Z,4.68
2023-04-16T02:19:19.853Z,4.32
2023-04-16T02:21:48.724Z,4.85
2023-04-16T02:24:15.793Z,4.10
2023-04-16T02:26:45.178Z,4.50
2023-04-16T02:29:16.743Z,4.35
2023-04-16T02:31:50.589Z,4.43
2023-04-16T02:34:19.876Z,4.30
2023-04-16T02:36:48.854Z,4.45
2023-04-16T02:39:16.721Z,4.28
2023-04-16T02:41:45.785Z,4.25
2023-04-16T02:44:13.396Z,4.30
2023-04-16T02:46:41.340Z,4.53
2023-04-16T02:49:09.051Z,4.13
2023-04-16T02:51:36.246Z,4.03
2023-04-16T02:54:03.406Z,4.38
2023-04-16T02:56:34.430Z,4.55
2023-04-16T02:59:02.052Z,4.97
2023-04-16T03:01:29.865Z,5.05
2023-04-16T03:04:01.220Z,4.90
2023-04-16T03:06:29.207Z,4.03
2023-04-16T03:08:57.168Z,4.53
2023-04-16T03:11:24.433Z,4.97
2023-04-16T03:13:52.397Z,4.40
2023-04-16T03:16:20.142Z,4.43
2023-04-16T03:18:47.302Z,4.53
2023-04-16T03:21:14.818Z,4.13
2023-04-16T03:23:42.697Z,4.18
2023-04-16T03:26:14.146Z,4.10
2023-04-16T03:31:12.766Z,4.05
2023-04-16T03:33:43.494Z,3.40
2023-04-16T03:36:14.406Z,3.70
2023-04-16T03:38:41.639Z,3.55
2023-04-16T03:41:14.317Z,3.28
2023-04-16T03:52:38.519Z,3.00
2023-04-16T03:59:42.491Z,3.38
2023-04-16T04:14:52.090Z,3.40
2023-04-16T04:18:22.276Z,3.80
2023-04-16T04:25:17.963Z,4.30
2023-04-16T04:28:18.358Z,4.32
2023-04-16T04:30:50.830Z,4.72
2023-04-16T04:34:50.367Z,5.07
2023-04-16T04:45:02.826Z,5.90
2023-04-16T04:47:32.982Z,6.55
2023-04-16T04:50:01.543Z,12.70
2023-04-16T04:59:07.520Z,5.00
2023-04-16T05:05:51.408Z,5.43
2023-04-16T05:08:24.338Z,5.10
2023-04-16T05:14:16.543Z,4.18
2023-04-16T05:16:47.178Z,3.95
2023-04-16T05:19:15.126Z,4.00
2023-04-16T05:21:46.736Z,3.90
2023-04-16T05:24:15.225Z,4.28
2023-04-16T05:26:43.996Z,3.53
2023-04-16T05:32:07.706Z,3.45
2023-04-16T05:34:35.615Z,3.17
2023-04-16T05:37:13.884Z,3.00
2023-04-16T05:39:43.192Z,2.83
2023-04-16T05:42:48.431Z,2.83
2023-04-16T05:45:19.062Z,2.55
2023-04-16T05:47:48.133Z,2.90
2023-04-16T05:50:15.581Z,3.38
2023-04-16T05:52:43.675Z,2.55
2023-04-16T05:58:22.084Z,2.65
2023-04-16T06:00:50.385Z,3.10
2023-04-16T06:03:19.895Z,2.88
2023-04-16T06:05:47.457Z,2.83
2023-04-16T06:08:14.912Z,3.00
2023-04-16T06:10:42.285Z,3.80
2023-04-16T06:13:10.458Z,3.20
2023-04-16T06:15:37.679Z,3.35
2023-04-16T06:18:05.662Z,3.58
2023-04-16T06:20:36.831Z,3.88
2023-04-16T06:23:06.645Z,4.32
2023-04-16T06:25:35.244Z,4.40
2023-04-16T06:28:02.984Z,3.95
2023-04-16T06:35:01.864Z,4.97
2023-04-16T06:40:39.521Z,4.70
2023-04-16T06:45:56.852Z,5.63
2023-04-16T06:48:26.837Z,5.78
2023-04-16T06:50:57.868Z,6.00
2023-04-16T06:53:26.064Z,5.95
2023-04-16T06:55:54.469Z,7.43
2023-04-16T06:58:23.712Z,7.45
2023-04-16T07:00:54.409Z,8.80
2023-04-16T07:08:58.555Z,10.52
2023-04-16T07:11:27.361Z,10.32
2023-04-16T07:13:59.285Z,17.05
2023-04-16T07:19:24.789Z,9.27
2023-04-16T07:21:57.008Z,8.98
2023-04-16T07:25:04.604Z,8.88
2023-04-16T07:27:31.925Z,9.23
2023-04-16T07:30:00.968Z,9.30
2023-04-16T07:35:17.800Z,7.88
2023-04-16T07:37:59.885Z,9.32
2023-04-16T07:40:44.433Z,13.13
2023-04-16T07:43:38.572Z,11.18
2023-04-16T08:06:30.588Z,9.27
2023-04-16T08:23:35.024Z,11.73
2023-04-16T08:26:05.854Z,11.35
2023-04-16T09:02:58.482Z,12.82
2023-04-16T09:05:38.579Z,13.35
2023-04-16T09:11:02.309Z,13.65
2023-04-16T09:13:50.535Z,13.55
2023-04-16T09:16:27.110Z,13.60
2023-04-16T09:24:38.752Z,12.77
2023-04-16T09:27:08.182Z,11.55
2023-04-16T09:44:06.722Z,12.82
2023-04-16T09:50:28.573Z,11.93
2023-04-16T10:15:23.685Z,12.45
2023-04-16T10:18:18.253Z,12.63
2023-04-16T10:20:51.762Z,12.52
2023-04-16T10:23:55.529Z,12.40
2023-04-16T10:26:25.645Z,11.88
2023-04-16T10:28:56.604Z,12.50
2023-04-16T10:31:28.977Z,13.45
2023-04-16T10:33:59.694Z,12.63
2023-04-16T10:36:29.124Z,13.50
2023-04-16T10:39:03.145Z,13.00
2023-04-16T10:41:36.998Z,14.10
2023-04-16T10:44:20.166Z,23.33
2023-04-16T10:46:54.530Z,15.45
2023-04-16T10:52:34.017Z,13.25
2023-04-16T10:56:15.312Z,14.27
2023-04-16T11:03:05.218Z,12.93
2023-04-16T11:08:32.518Z,12.63
2023-04-16T11:11:02.709Z,13.52
2023-04-16T11:13:30.463Z,13.43
2023-04-16T11:15:59.350Z,11.75
2023-04-16T11:18:30.901Z,13.68
2023-04-16T11:20:58.605Z,13.85
2023-04-16T11:26:27.298Z,13.10
2023-04-16T11:29:03.170Z,11.82
2023-04-16T11:31:31.509Z,13.02
2023-04-16T11:34:05.098Z,13.60
2023-04-16T12:03:57.980Z,13.90
2023-04-16T12:06:54.724Z,13.32
2023-04-16T12:09:55.974Z,13.95
2023-04-16T12:12:35.768Z,14.55
2023-04-16T12:36:24.602Z,15.50
2023-04-16T12:39:06.000Z,15.30
2023-04-16T12:41:38.473Z,15.98
2023-04-16T12:44:16.744Z,16.13
2023-04-16T12:46:46.453Z,15.75
2023-04-16T12:49:26.549Z,14.55
2023-04-16T12:52:04.200Z,15.77
2023-04-16T12:54:40.610Z,14.93
2023-04-16T12:57:20.234Z,15.52
2023-04-16T12:59:53.284Z,15.57
2023-04-16T13:02:23.500Z,15.18
2023-04-16T13:04:53.049Z,14.93
2023-04-16T13:07:23.397Z,16.15
2023-04-16T13:09:52.764Z,17.88
2023-04-16T13:12:23.867Z,17.40
2023-04-16T13:14:54.360Z,19.65
2023-04-16T13:17:31.564Z,17.42
2023-04-16T13:20:02.439Z,18.08
2023-04-16T13:22:35.035Z,16.95
2023-04-16T13:27:57.619Z,19.73
2023-04-16T13:33:26.051Z,18.60
2023-04-16T13:36:00.121Z,17.33
2023-04-16T13:38:56.988Z,16.85
2023-04-16T13:41:30.878Z,18.23
2023-04-16T13:44:14.039Z,18.45
2023-04-16T13:46:44.169Z,19.15
2023-04-16T13:49:11.685Z,17.77
2023-04-16T13:51:56.707Z,18.73
2023-04-16T13:58:04.548Z,18.92
2023-04-16T14:00:38.480Z,19.23
2023-04-16T14:03:07.768Z,18.13
2023-04-16T14:05:36.324Z,17.08
2023-04-16T14:08:12.144Z,18.00
2023-04-16T14:10:39.545Z,18.63
2023-04-16T14:13:11.164Z,18.17
2023-04-16T14:15:45.299Z,16.83
2023-04-16T14:18:14.310Z,15.90
2023-04-16T14:20:44.517Z,16.42
2023-04-16T14:31:28.270Z,16.85
2023-04-16T14:34:18.849Z,16.88
2023-04-16T14:36:46.967Z,16.10
2023-04-16T14:47:13.976Z,14.93
2023-04-16T14:52:24.708Z,15.93
2023-04-16T15:00:25.178Z,126.88
2023-04-16T15:02:56.652Z,21.08
2023-04-16T15:05:36.554Z,21.13
2023-04-16T15:08:06.266Z,22.48
2023-04-16T15:13:22.131Z,19.65
2023-04-16T15:16:41.218Z,20.38
2023-04-16T15:19:16.376Z,19.55
2023-04-16T15:21:52.602Z,20.48
2023-04-16T15:24:47.156Z,20.92
2023-04-16T15:27:17.029Z,21.55
2023-04-16T15:29:56.723Z,18.65
2023-04-16T15:35:17.275Z,20.63
2023-04-16T15:37:47.737Z,20.95
2023-04-16T15:40:23.520Z,18.55
2023-04-16T15:42:57.923Z,18.85
2023-04-16T15:48:05.953Z,21.35
2023-04-16T15:50:34.269Z,22.50
2023-04-16T15:53:03.231Z,21.88
2023-04-16T15:55:31.834Z,25.08
2023-04-16T15:57:59.129Z,22.15
2023-04-16T16:00:28.115Z,20.80
2023-04-16T16:02:56.366Z,18.15
2023-04-16T16:05:23.776Z,20.50
2023-04-16T16:07:52.551Z,20.48
2023-04-16T16:10:20.384Z,24.13
2023-04-16T16:12:50.395Z,24.80
2023-04-16T16:15:18.934Z,24.80
2023-04-16T16:18:08.762Z,26.27
2023-04-16T16:21:39.993Z,25.95
2023-04-16T16:24:09.715Z,26.08
2023-04-16T16:29:36.212Z,25.20
2023-04-16T16:36:47.315Z,23.17
2023-04-16T16:39:25.532Z,26.17
2023-04-16T16:41:56.312Z,32.15
2023-04-16T16:44:37.910Z,29.17
2023-04-16T16:49:51.745Z,27.35
2023-04-16T16:52:25.556Z,27.00
2023-04-16T16:54:57.276Z,24.10
2023-04-16T16:57:26.204Z,25.83
2023-04-16T16:59:54.753Z,25.20
2023-04-16T17:05:08.753Z,28.38
2023-04-16T17:07:41.532Z,25.92
2023-04-16T17:10:23.352Z,26.70
2023-04-16T17:12:51.241Z,26.15
2023-04-16T17:15:21.670Z,29.10
2023-04-16T17:17:50.566Z,28.02
2023-04-16T17:22:59.624Z,26.70
2023-04-16T17:25:26.725Z,24.05
2023-04-16T17:27:54.793Z,24.95
2023-04-16T17:30:31.889Z,30.02
2023-04-16T17:32:59.295Z,26.75
2023-04-16T17:38:14.248Z,28.23
2023-04-16T17:40:41.912Z,28.58
2023-04-16T17:43:10.899Z,29.27
2023-04-16T17:45:38.850Z,30.35
2023-04-16T17:48:06.534Z,28.20
2023-04-16T17:50:33.894Z,29.02
2023-04-16T17:53:04.965Z,28.15
2023-04-16T17:55:35.124Z,26.77
2023-04-16T17:58:06.015Z,27.58
2023-04-16T18:00:34.753Z,27.75
2023-04-16T18:03:06.639Z,26.92
2023-04-16T18:05:35.049Z,29.60
2023-04-16T18:08:04.741Z,30.15
2023-04-16T18:10:37.204Z,29.52
2023-04-16T18:13:15.551Z,29.48
2023-04-16T18:15:43.933Z,29.75
2023-04-16T18:18:12.129Z,30.13
2023-04-16T18:20:44.100Z,31.30
2023-04-16T18:23:14.679Z,29.77
2023-04-16T18:25:44.938Z,30.48
2023-04-16T18:28:14.011Z,30.83
2023-04-16T18:30:42.989Z,33.05
2023-04-16T18:33:38.915Z,31.90
2023-04-16T18:36:03.424Z,26.35
2023-04-16T18:38:31.363Z,31.63
2023-04-16T18:40:58.712Z,29.70
2023-04-16T18:43:25.720Z,31.73
2023-04-16T18:45:53.072Z,30.15
2023-04-16T18:48:20.234Z,31.65
2023-04-16T18:50:48.484Z,34.85
2023-04-16T18:53:15.635Z,34.38
2023-04-16T18:55:43.529Z,33.58
2023-04-16T18:58:32.445Z,33.10
2023-04-16T19:01:01.153Z,31.25
2023-04-16T19:03:29.621Z,33.13
2023-04-16T19:05:56.870Z,33.38
2023-04-16T19:08:25.221Z,34.03
2023-04-16T19:10:53.436Z,34.40
2023-04-16T19:13:20.657Z,35.40
2023-04-16T19:15:48.794Z,35.03
2023-04-16T19:18:17.792Z,37.65
2023-04-16T19:20:45.891Z,36.00
2023-04-16T19:23:15.362Z,39.60
2023-04-16T19:31:38.405Z,40.80
2023-04-16T19:34:13.991Z,42.78
2023-04-16T19:43:08.014Z,43.10
2023-04-16T19:51:33.448Z,44.40
2023-04-16T20:00:02.486Z,41.95
2023-04-16T20:02:34.376Z,38.85
2023-04-16T20:05:02.810Z,39.13
2023-04-16T20:07:36.579Z,41.80
2023-04-16T20:10:08.702Z,40.83
2023-04-16T20:12:37.873Z,39.97
2023-04-16T20:15:06.906Z,44.33
2023-04-16T20:17:36.200Z,42.85
2023-04-16T20:20:07.536Z,41.08
2023-04-16T20:22:36.522Z,42.83
2023-04-16T20:25:06.044Z,43.78
2023-04-16T20:30:17.240Z,39.42
2023-04-16T20:32:56.150Z,40.95
2023-04-16T20:35:27.174Z,40.42
2023-04-16T20:38:01.496Z,43.70
2023-04-16T20:40:30.581Z,43.35
2023-04-16T20:43:00.187Z,40.75
2023-04-16T20:45:42.080Z,43.70
2023-04-16T20:48:20.090Z,40.17
2023-04-16T20:50:52.232Z,39.38
2023-04-16T20:58:51.238Z,37.55
2023-04-16T21:01:22.453Z,38.20
2023-04-16T21:06:44.733Z,33.17
2023-04-16T21:09:27.116Z,39.92
2023-04-16T21:14:59.097Z,31.10
2023-04-16T21:17:29.177Z,32.95
2023-04-16T21:20:02.375Z,34.47
2023-04-16T21:27:57.662Z,33.83
2023-04-16T21:30:32.469Z,36.22
2023-04-16T21:33:15.052Z,35.17
2023-04-16T21:35:49.433Z,33.45
2023-04-16T21:38:44.984Z,34.60
2023-04-16T21:41:14.997Z,34.55
2023-04-16T21:43:49.023Z,35.88
2023-04-16T21:46:21.606Z,35.17
2023-04-16T21:48:54.991Z,34.65
2023-04-16T21:51:29.585Z,33.83
2023-04-16T21:54:02.785Z,34.58
2023-04-16T21:56:33.198Z,34.35
2023-04-16T21:59:01.154Z,33.42
2023-04-16T22:01:30.643Z,35.95
2023-04-16T22:04:11.209Z,36.58
2023-04-16T22:17:39.642Z,36.58
2023-04-16T22:20:15.300Z,34.13
2023-04-16T22:22:44.775Z,36.40
2023-04-16T22:25:22.051Z,37.45
2023-04-16T22:27:50.861Z,39.00
2023-04-16T22:30:19.652Z,37.10
2023-04-16T22:32:53.801Z,37.75
2023-04-16T22:38:41.396Z,39.50
2023-04-16T22:41:26.471Z,40.53
2023-04-16T22:43:58.120Z,40.00
2023-04-16T22:51:43.315Z,38.55
2023-04-16T22:54:13.749Z,40.10
2023-04-16T22:56:42.177Z,39.55
2023-04-16T23:02:03.430Z,39.63
2023-04-16T23:07:19.172Z,41.05
2023-04-16T23:16:43.743Z,40.78
2023-04-16T23:19:46.271Z,39.92
2023-04-16T23:22:29.040Z,40.72
2023-04-16T23:27:45.736Z,40.47
2023-04-16T23:31:07.371Z,40.90
2023-04-16T23:33:43.301Z,40.83
2023-04-16T23:39:00.889Z,40.42
2023-04-16T23:41:28.633Z,42.90
2023-04-16T23:46:41.439Z,42.55
2023-04-16T23:49:11.627Z,41.83
2023-04-16T23:51:46.039Z,41.08
2023-04-16T23:54:23.571Z,42.75
2023-04-16T23:56:51.851Z,43.00
